sensor_id;sensor_type;location;lat;lon;timestamp;temperature;humidity
6964;DHT22;3522;50.856;7.278;2023-07-24T00:00:51;18.00;99.90
6964;DHT22;3522;50.856;7.278;2023-07-24T00:03:17;17.90;99.90
6964;DHT22;3522;50.856;7.278;2023-07-24T00:05:44;17.90;99.90
6964;DHT22;3522;50.856;7.278;2023-07-24T00:08:10;17.90;99.90
6964;DHT22;3522;50.856;7.278;2023-07-24T00:10:37;17.90;99.90
6964;DHT22;3522;50.856;7.278;2023-07-24T00:13:05;17.80;99.90
6964;DHT22;3522;50.856;7.278;2023-07-24T00:15:31;17.90;99.90
6964;DHT22;3522;50.856;7.278;2023-07-24T00:17:58;17.90;99.90
6964;DHT22;3522;50.856;7.278;2023-07-24T00:20:25;17.90;99.90
6964;DHT22;3522;50.856;7.278;2023-07-24T00:22:51;17.90;99.90
6964;DHT22;3522;50.856;7.278;2023-07-24T00:25:18;17.90;99.90
6964;DHT22;3522;50.856;7.278;2023-07-24T00:27:44;17.90;99.90
6964;DHT22;3522;50.856;7.278;2023-07-24T00:30:12;17.90;99.90
6964;DHT22;3522;50.856;7.278;2023-07-24T00:32:39;17.90;99.90
6964;DHT22;3522;50.856;7.278;2023-07-24T00:35:06;17.90;99.90
6964;DHT22;3522;50.856;7.278;2023-07-24T00:37:33;17.90;99.90
6964;DHT22;3522;50.856;7.278;2023-07-24T00:39:59;17.80;99.90
6964;DHT22;3522;50.856;7.278;2023-07-24T00:42:26;17.80;99.90
6964;DHT22;3522;50.856;7.278;2023-07-24T00:44:52;17.90;99.90
6964;DHT22;3522;50.856;7.278;2023-07-24T00:47:20;17.90;99.90
6964;DHT22;3522;50.856;7.278;2023-07-24T00:49:47;17.90;99.90
6964;DHT22;3522;50.856;7.278;2023-07-24T00:52:14;17.90;99.90
6964;DHT22;3522;50.856;7.278;2023-07-24T00:54:41;17.90;99.90
6964;DHT22;3522;50.856;7.278;2023-07-24T00:57:09;18.00;99.90
6964;DHT22;3522;50.856;7.278;2023-07-24T00:59:36;18.00;99.90
6964;DHT22;3522;50.856;7.278;2023-07-24T01:02:02;18.00;99.90
6964;DHT22;3522;50.856;7.278;2023-07-24T01:04:30;18.00;99.90
6964;DHT22;3522;50.856;7.278;2023-07-24T01:06:57;18.00;99.90
6964;DHT22;3522;50.856;7.278;2023-07-24T01:09:24;18.00;99.90
6964;DHT22;3522;50.856;7.278;2023-07-24T01:11:51;18.00;99.90
6964;DHT22;3522;50.856;7.278;2023-07-24T01:14:21;18.10;99.90
6964;DHT22;3522;50.856;7.278;2023-07-24T01:16:49;18.10;99.90
6964;DHT22;3522;50.856;7.278;2023-07-24T01:19:20;18.00;99.90
6964;DHT22;3522;50.856;7.278;2023-07-24T01:21:51;18.00;99.90
6964;DHT22;3522;50.856;7.278;2023-07-24T01:24:23;18.00;99.90
6964;DHT22;3522;50.856;7.278;2023-07-24T01:26:51;18.00;99.90
6964;DHT22;3522;50.856;7.278;2023-07-24T01:29:18;18.00;99.90
6964;DHT22;3522;50.856;7.278;2023-07-24T01:31:45;18.00;99.90
6964;DHT22;3522;50.856;7.278;2023-07-24T01:34:11;18.00;99.90
6964;DHT22;3522;50.856;7.278;2023-07-24T01:36:38;18.00;99.90
6964;DHT22;3522;50.856;7.278;2023-07-24T01:39:04;18.00;99.90
6964;DHT22;3522;50.856;7.278;2023-07-24T01:41:31;18.00;99.90
6964;DHT22;3522;50.856;7.278;2023-07-24T01:44:00;18.00;99.90
6964;DHT22;3522;50.856;7.278;2023-07-24T01:46:26;18.00;99.90
6964;DHT22;3522;50.856;7.278;2023-07-24T01:48:53;18.00;99.90
6964;DHT22;3522;50.856;7.278;2023-07-24T01:51:19;18.00;99.90
6964;DHT22;3522;50.856;7.278;2023-07-24T01:53:46;18.00;99.90
6964;DHT22;3522;50.856;7.278;2023-07-24T01:56:12;18.00;99.90
6964;DHT22;3522;50.856;7.278;2023-07-24T01:58:39;18.00;99.90
6964;DHT22;3522;50.856;7.278;2023-07-24T02:01:07;18.10;99.90
6964;DHT22;3522;50.856;7.278;2023-07-24T02:03:33;18.10;99.90
6964;DHT22;3522;50.856;7.278;2023-07-24T02:06:00;18.10;99.90
6964;DHT22;3522;50.856;7.278;2023-07-24T02:08:26;18.10;99.90
6964;DHT22;3522;50.856;7.278;2023-07-24T02:10:53;18.10;99.90
6964;DHT22;3522;50.856;7.278;2023-07-24T02:13:19;18.20;99.90
6964;DHT22;3522;50.856;7.278;2023-07-24T02:15:46;18.20;99.90
6964;DHT22;3522;50.856;7.278;2023-07-24T02:18:14;18.20;99.90
6964;DHT22;3522;50.856;7.278;2023-07-24T02:20:40;18.20;99.90
6964;DHT22;3522;50.856;7.278;2023-07-24T02:23:08;18.30;99.90
6964;DHT22;3522;50.856;7.278;2023-07-24T02:25:35;18.30;99.90
6964;DHT22;3522;50.856;7.278;2023-07-24T02:28:02;18.30;99.90
6964;DHT22;3522;50.856;7.278;2023-07-24T02:30:28;18.40;99.90
6964;DHT22;3522;50.856;7.278;2023-07-24T02:32:55;18.40;99.90
6964;DHT22;3522;50.856;7.278;2023-07-24T02:35:23;18.40;99.90
6964;DHT22;3522;50.856;7.278;2023-07-24T02:37:50;18.40;99.90
6964;DHT22;3522;50.856;7.278;2023-07-24T02:40:16;18.30;99.90
6964;DHT22;3522;50.856;7.278;2023-07-24T02:42:43;18.30;99.90
6964;DHT22;3522;50.856;7.278;2023-07-24T02:45:10;18.30;99.90
6964;DHT22;3522;50.856;7.278;2023-07-24T02:47:36;18.20;99.90
6964;DHT22;3522;50.856;7.278;2023-07-24T02:50:03;18.20;99.90
6964;DHT22;3522;50.856;7.278;2023-07-24T02:52:31;18.10;99.90
6964;DHT22;3522;50.856;7.278;2023-07-24T02:54:58;18.10;99.90
6964;DHT22;3522;50.856;7.278;2023-07-24T02:57:24;18.00;99.90
6964;DHT22;3522;50.856;7.278;2023-07-24T02:59:51;18.00;99.90
6964;DHT22;3522;50.856;7.278;2023-07-24T03:02:17;18.00;99.90
6964;DHT22;3522;50.856;7.278;2023-07-24T03:04:44;18.00;99.90
6964;DHT22;3522;50.856;7.278;2023-07-24T03:07:10;17.90;99.90
6964;DHT22;3522;50.856;7.278;2023-07-24T03:09:38;17.90;99.90
6964;DHT22;3522;50.856;7.278;2023-07-24T03:12:05;17.90;99.90
6964;DHT22;3522;50.856;7.278;2023-07-24T03:14:32;17.80;99.90
6964;DHT22;3522;50.856;7.278;2023-07-24T03:16:58;17.80;99.90
6964;DHT22;3522;50.856;7.278;2023-07-24T03:19:28;17.80;99.90
6964;DHT22;3522;50.856;7.278;2023-07-24T03:21:54;17.80;99.90
6964;DHT22;3522;50.856;7.278;2023-07-24T03:24:21;17.70;99.90
6964;DHT22;3522;50.856;7.278;2023-07-24T03:26:49;17.70;99.90
6964;DHT22;3522;50.856;7.278;2023-07-24T03:29:15;17.70;99.90
6964;DHT22;3522;50.856;7.278;2023-07-24T03:31:42;17.70;99.90
6964;DHT22;3522;50.856;7.278;2023-07-24T03:34:08;17.60;99.90
6964;DHT22;3522;50.856;7.278;2023-07-24T03:36:35;17.50;99.90
6964;DHT22;3522;50.856;7.278;2023-07-24T03:39:02;17.50;99.90
6964;DHT22;3522;50.856;7.278;2023-07-24T03:41:28;17.50;99.90
6964;DHT22;3522;50.856;7.278;2023-07-24T03:43:56;17.50;99.90
6964;DHT22;3522;50.856;7.278;2023-07-24T03:46:23;17.50;99.90
6964;DHT22;3522;50.856;7.278;2023-07-24T03:48:49;17.50;99.90
6964;DHT22;3522;50.856;7.278;2023-07-24T03:51:16;17.50;99.90
6964;DHT22;3522;50.856;7.278;2023-07-24T03:53:42;17.40;99.90
6964;DHT22;3522;50.856;7.278;2023-07-24T03:56:09;17.50;99.90
6964;DHT22;3522;50.856;7.278;2023-07-24T03:58:36;17.50;99.90
6964;DHT22;3522;50.856;7.278;2023-07-24T04:01:05;17.50;99.90
6964;DHT22;3522;50.856;7.278;2023-07-24T04:03:31;17.50;99.90
6964;DHT22;3522;50.856;7.278;2023-07-24T04:05:58;17.50;99.90
6964;DHT22;3522;50.856;7.278;2023-07-24T04:08:25;17.50;99.90
6964;DHT22;3522;50.856;7.278;2023-07-24T04:10:51;17.50;99.90
6964;DHT22;3522;50.856;7.278;2023-07-24T04:13:18;17.60;99.90
6964;DHT22;3522;50.856;7.278;2023-07-24T04:15:45;17.50;99.90
6964;DHT22;3522;50.856;7.278;2023-07-24T04:18:13;17.60;99.90
6964;DHT22;3522;50.856;7.278;2023-07-24T04:20:39;17.50;99.90
6964;DHT22;3522;50.856;7.278;2023-07-24T04:23:06;17.60;99.90
6964;DHT22;3522;50.856;7.278;2023-07-24T04:25:32;17.60;99.90
6964;DHT22;3522;50.856;7.278;2023-07-24T04:27:59;17.60;99.90
6964;DHT22;3522;50.856;7.278;2023-07-24T04:30:26;17.60;99.90
6964;DHT22;3522;50.856;7.278;2023-07-24T04:32:52;17.70;99.90
6964;DHT22;3522;50.856;7.278;2023-07-24T04:35:20;17.70;99.90
6964;DHT22;3522;50.856;7.278;2023-07-24T04:37:48;17.80;99.90
6964;DHT22;3522;50.856;7.278;2023-07-24T04:40:17;17.80;99.90
6964;DHT22;3522;50.856;7.278;2023-07-24T04:42:43;17.80;99.90
6964;DHT22;3522;50.856;7.278;2023-07-24T04:45:10;17.90;99.90
6964;DHT22;3522;50.856;7.278;2023-07-24T04:47:36;17.90;99.90
6964;DHT22;3522;50.856;7.278;2023-07-24T04:50:04;18.00;99.90
6964;DHT22;3522;50.856;7.278;2023-07-24T04:52:32;18.00;99.90
6964;DHT22;3522;50.856;7.278;2023-07-24T04:54:59;18.00;99.90
6964;DHT22;3522;50.856;7.278;2023-07-24T04:57:25;18.10;99.90
6964;DHT22;3522;50.856;7.278;2023-07-24T04:59:52;18.20;99.90
6964;DHT22;3522;50.856;7.278;2023-07-24T05:02:18;18.10;99.90
6964;DHT22;3522;50.856;7.278;2023-07-24T05:04:45;18.20;99.90
6964;DHT22;3522;50.856;7.278;2023-07-24T05:07:11;18.20;99.90
6964;DHT22;3522;50.856;7.278;2023-07-24T05:09:39;18.20;99.90
6964;DHT22;3522;50.856;7.278;2023-07-24T05:12:06;18.20;99.90
6964;DHT22;3522;50.856;7.278;2023-07-24T05:14:33;18.20;99.90
6964;DHT22;3522;50.856;7.278;2023-07-24T05:16:59;18.20;99.90
6964;DHT22;3522;50.856;7.278;2023-07-24T05:19:26;18.30;99.90
6964;DHT22;3522;50.856;7.278;2023-07-24T05:21:52;18.30;99.90
6964;DHT22;3522;50.856;7.278;2023-07-24T05:24:19;18.30;99.90
6964;DHT22;3522;50.856;7.278;2023-07-24T05:26:47;18.40;99.90
6964;DHT22;3522;50.856;7.278;2023-07-24T05:29:13;18.40;99.90
6964;DHT22;3522;50.856;7.278;2023-07-24T05:31:40;18.50;99.90
6964;DHT22;3522;50.856;7.278;2023-07-24T05:34:06;18.50;99.90
6964;DHT22;3522;50.856;7.278;2023-07-24T05:36:33;18.60;99.90
6964;DHT22;3522;50.856;7.278;2023-07-24T05:38:59;18.70;99.90
6964;DHT22;3522;50.856;7.278;2023-07-24T05:41:26;18.80;99.90
6964;DHT22;3522;50.856;7.278;2023-07-24T05:43:54;18.90;99.90
6964;DHT22;3522;50.856;7.278;2023-07-24T05:46:20;19.00;99.90
6964;DHT22;3522;50.856;7.278;2023-07-24T05:48:47;19.00;99.90
6964;DHT22;3522;50.856;7.278;2023-07-24T05:51:14;19.10;99.90
6964;DHT22;3522;50.856;7.278;2023-07-24T05:53:41;19.20;99.90
6964;DHT22;3522;50.856;7.278;2023-07-24T05:56:07;19.20;99.90
6964;DHT22;3522;50.856;7.278;2023-07-24T05:58:34;19.40;99.90
6964;DHT22;3522;50.856;7.278;2023-07-24T06:01:02;19.50;99.90
6964;DHT22;3522;50.856;7.278;2023-07-24T06:03:28;19.70;99.90
6964;DHT22;3522;50.856;7.278;2023-07-24T06:05:55;19.70;99.90
6964;DHT22;3522;50.856;7.278;2023-07-24T06:08:22;19.80;99.90
6964;DHT22;3522;50.856;7.278;2023-07-24T06:10:49;19.80;99.90
6964;DHT22;3522;50.856;7.278;2023-07-24T06:13:16;19.80;99.90
6964;DHT22;3522;50.856;7.278;2023-07-24T06:15:43;19.80;99.90
6964;DHT22;3522;50.856;7.278;2023-07-24T06:18:11;19.70;99.90
6964;DHT22;3522;50.856;7.278;2023-07-24T06:20:37;19.80;99.90
6964;DHT22;3522;50.856;7.278;2023-07-24T06:23:04;19.80;99.90
6964;DHT22;3522;50.856;7.278;2023-07-24T06:25:30;19.80;99.90
6964;DHT22;3522;50.856;7.278;2023-07-24T06:27:57;19.70;99.90
6964;DHT22;3522;50.856;7.278;2023-07-24T06:30:24;19.70;99.90
6964;DHT22;3522;50.856;7.278;2023-07-24T06:32:50;19.80;99.90
6964;DHT22;3522;50.856;7.278;2023-07-24T06:35:18;20.00;99.90
6964;DHT22;3522;50.856;7.278;2023-07-24T06:37:45;20.50;99.90
6964;DHT22;3522;50.856;7.278;2023-07-24T06:40:11;20.90;99.90
6964;DHT22;3522;50.856;7.278;2023-07-24T06:42:38;21.20;99.90
6964;DHT22;3522;50.856;7.278;2023-07-24T06:45:05;21.10;99.90
6964;DHT22;3522;50.856;7.278;2023-07-24T06:47:32;21.10;99.90
6964;DHT22;3522;50.856;7.278;2023-07-24T06:49:59;21.10;99.90
6964;DHT22;3522;50.856;7.278;2023-07-24T06:52:27;20.80;99.90
6964;DHT22;3522;50.856;7.278;2023-07-24T06:54:53;20.60;99.90
6964;DHT22;3522;50.856;7.278;2023-07-24T06:57:20;20.50;99.90
6964;DHT22;3522;50.856;7.278;2023-07-24T06:59:46;20.40;99.90
6964;DHT22;3522;50.856;7.278;2023-07-24T07:02:13;20.20;99.90
6964;DHT22;3522;50.856;7.278;2023-07-24T07:04:39;20.20;99.90
6964;DHT22;3522;50.856;7.278;2023-07-24T07:07:06;20.20;99.90
6964;DHT22;3522;50.856;7.278;2023-07-24T07:09:34;20.20;99.90
6964;DHT22;3522;50.856;7.278;2023-07-24T07:12:00;20.30;99.90
6964;DHT22;3522;50.856;7.278;2023-07-24T07:14:27;20.40;99.90
6964;DHT22;3522;50.856;7.278;2023-07-24T07:16:53;20.40;99.90
6964;DHT22;3522;50.856;7.278;2023-07-24T07:19:20;20.50;99.90
6964;DHT22;3522;50.856;7.278;2023-07-24T07:21:46;20.60;99.90
6964;DHT22;3522;50.856;7.278;2023-07-24T07:24:13;20.70;99.90
6964;DHT22;3522;50.856;7.278;2023-07-24T07:26:41;20.70;99.90
6964;DHT22;3522;50.856;7.278;2023-07-24T07:29:07;20.90;99.90
6964;DHT22;3522;50.856;7.278;2023-07-24T07:31:34;21.00;99.90
6964;DHT22;3522;50.856;7.278;2023-07-24T07:34:01;21.20;99.90
6964;DHT22;3522;50.856;7.278;2023-07-24T07:36:27;21.30;99.90
6964;DHT22;3522;50.856;7.278;2023-07-24T07:38:54;21.40;99.90
6964;DHT22;3522;50.856;7.278;2023-07-24T07:41:20;21.70;99.90
6964;DHT22;3522;50.856;7.278;2023-07-24T07:43:48;21.60;99.90
6964;DHT22;3522;50.856;7.278;2023-07-24T07:46:15;21.60;99.90
6964;DHT22;3522;50.856;7.278;2023-07-24T07:48:41;21.60;99.90
6964;DHT22;3522;50.856;7.278;2023-07-24T07:51:08;21.50;99.90
6964;DHT22;3522;50.856;7.278;2023-07-24T07:53:34;21.50;99.90
6964;DHT22;3522;50.856;7.278;2023-07-24T07:56:01;21.50;99.90
6964;DHT22;3522;50.856;7.278;2023-07-24T07:58:27;21.30;99.90
6964;DHT22;3522;50.856;7.278;2023-07-24T08:00:55;21.30;99.90
6964;DHT22;3522;50.856;7.278;2023-07-24T08:03:22;21.30;99.90
6964;DHT22;3522;50.856;7.278;2023-07-24T08:05:48;21.40;99.90
6964;DHT22;3522;50.856;7.278;2023-07-24T08:08:15;21.40;99.90
6964;DHT22;3522;50.856;7.278;2023-07-24T08:10:41;21.60;99.90
6964;DHT22;3522;50.856;7.278;2023-07-24T08:13:08;21.80;99.90
6964;DHT22;3522;50.856;7.278;2023-07-24T08:15:35;22.00;99.90
6964;DHT22;3522;50.856;7.278;2023-07-24T08:18:03;22.40;99.90
6964;DHT22;3522;50.856;7.278;2023-07-24T08:20:30;22.90;99.90
6964;DHT22;3522;50.856;7.278;2023-07-24T08:22:57;23.30;99.90
6964;DHT22;3522;50.856;7.278;2023-07-24T08:25:23;24.00;99.90
6964;DHT22;3522;50.856;7.278;2023-07-24T08:27:50;24.40;99.90
6964;DHT22;3522;50.856;7.278;2023-07-24T08:30:17;24.70;99.90
6964;DHT22;3522;50.856;7.278;2023-07-24T08:32:44;24.40;99.90
6964;DHT22;3522;50.856;7.278;2023-07-24T08:35:12;24.20;99.90
6964;DHT22;3522;50.856;7.278;2023-07-24T08:37:38;24.10;99.90
6964;DHT22;3522;50.856;7.278;2023-07-24T08:40:08;23.90;99.90
6964;DHT22;3522;50.856;7.278;2023-07-24T08:42:36;23.70;99.90
6964;DHT22;3522;50.856;7.278;2023-07-24T08:45:05;23.40;99.90
6964;DHT22;3522;50.856;7.278;2023-07-24T08:47:31;23.20;99.90
6964;DHT22;3522;50.856;7.278;2023-07-24T08:50:01;23.00;99.90
6964;DHT22;3522;50.856;7.278;2023-07-24T08:52:29;22.90;99.90
6964;DHT22;3522;50.856;7.278;2023-07-24T08:54:56;23.10;99.90
6964;DHT22;3522;50.856;7.278;2023-07-24T08:57:24;23.20;99.90
6964;DHT22;3522;50.856;7.278;2023-07-24T08:59:50;23.30;99.90
6964;DHT22;3522;50.856;7.278;2023-07-24T09:02:17;23.40;99.90
6964;DHT22;3522;50.856;7.278;2023-07-24T09:04:43;23.50;99.90
6964;DHT22;3522;50.856;7.278;2023-07-24T09:07:10;23.50;99.90
6964;DHT22;3522;50.856;7.278;2023-07-24T09:09:39;23.70;99.90
6964;DHT22;3522;50.856;7.278;2023-07-24T09:12:06;23.50;99.90
6964;DHT22;3522;50.856;7.278;2023-07-24T09:14:32;23.60;99.90
6964;DHT22;3522;50.856;7.278;2023-07-24T09:17:03;23.40;99.90
6964;DHT22;3522;50.856;7.278;2023-07-24T09:19:29;23.40;99.90
6964;DHT22;3522;50.856;7.278;2023-07-24T09:21:56;23.70;99.90
6964;DHT22;3522;50.856;7.278;2023-07-24T09:24:33;24.00;99.90
6964;DHT22;3522;50.856;7.278;2023-07-24T09:27:04;24.10;99.90
6964;DHT22;3522;50.856;7.278;2023-07-24T09:29:30;24.00;99.90
6964;DHT22;3522;50.856;7.278;2023-07-24T09:31:58;23.90;99.90
6964;DHT22;3522;50.856;7.278;2023-07-24T09:34:25;23.70;99.90
6964;DHT22;3522;50.856;7.278;2023-07-24T09:36:52;23.70;99.90
6964;DHT22;3522;50.856;7.278;2023-07-24T09:39:22;23.60;99.90
6964;DHT22;3522;50.856;7.278;2023-07-24T09:41:52;23.60;99.90
6964;DHT22;3522;50.856;7.278;2023-07-24T09:44:24;23.70;99.90
6964;DHT22;3522;50.856;7.278;2023-07-24T09:46:51;23.70;99.90
6964;DHT22;3522;50.856;7.278;2023-07-24T09:49:18;23.70;99.90
6964;DHT22;3522;50.856;7.278;2023-07-24T09:51:47;23.50;99.90
6964;DHT22;3522;50.856;7.278;2023-07-24T09:54:15;23.30;99.90
6964;DHT22;3522;50.856;7.278;2023-07-24T09:56:43;22.90;99.90
6964;DHT22;3522;50.856;7.278;2023-07-24T09:59:10;22.90;99.90
6964;DHT22;3522;50.856;7.278;2023-07-24T10:01:39;23.00;99.90
6964;DHT22;3522;50.856;7.278;2023-07-24T10:04:06;23.00;99.90
6964;DHT22;3522;50.856;7.278;2023-07-24T10:06:33;22.70;99.90
6964;DHT22;3522;50.856;7.278;2023-07-24T10:09:00;22.80;99.90
6964;DHT22;3522;50.856;7.278;2023-07-24T10:11:26;22.60;99.90
6964;DHT22;3522;50.856;7.278;2023-07-24T10:13:53;22.60;99.90
6964;DHT22;3522;50.856;7.278;2023-07-24T10:16:20;22.90;99.90
6964;DHT22;3522;50.856;7.278;2023-07-24T10:18:48;23.20;99.90
6964;DHT22;3522;50.856;7.278;2023-07-24T10:21:14;23.30;99.90
6964;DHT22;3522;50.856;7.278;2023-07-24T10:23:41;23.60;99.90
6964;DHT22;3522;50.856;7.278;2023-07-24T10:26:08;23.60;99.90
6964;DHT22;3522;50.856;7.278;2023-07-24T10:28:36;23.80;99.90
6964;DHT22;3522;50.856;7.278;2023-07-24T10:31:03;24.00;99.90
6964;DHT22;3522;50.856;7.278;2023-07-24T10:33:34;24.30;99.90
6964;DHT22;3522;50.856;7.278;2023-07-24T10:36:07;24.50;99.90
6964;DHT22;3522;50.856;7.278;2023-07-24T10:38:36;24.90;99.90
6964;DHT22;3522;50.856;7.278;2023-07-24T10:41:03;25.60;99.90
6964;DHT22;3522;50.856;7.278;2023-07-24T10:43:39;26.30;99.90
6964;DHT22;3522;50.856;7.278;2023-07-24T10:46:06;26.80;99.90
6964;DHT22;3522;50.856;7.278;2023-07-24T10:48:33;26.70;99.90
6964;DHT22;3522;50.856;7.278;2023-07-24T10:51:05;26.90;99.90
6964;DHT22;3522;50.856;7.278;2023-07-24T10:53:34;26.40;99.90
6964;DHT22;3522;50.856;7.278;2023-07-24T10:56:00;26.10;99.90
6964;DHT22;3522;50.856;7.278;2023-07-24T10:58:27;26.10;99.90
6964;DHT22;3522;50.856;7.278;2023-07-24T11:00:54;26.10;99.90
6964;DHT22;3522;50.856;7.278;2023-07-24T11:03:21;25.70;99.90
6964;DHT22;3522;50.856;7.278;2023-07-24T11:05:47;25.40;99.90
6964;DHT22;3522;50.856;7.278;2023-07-24T11:08:14;25.00;99.90
6964;DHT22;3522;50.856;7.278;2023-07-24T11:10:45;24.60;99.90
6964;DHT22;3522;50.856;7.278;2023-07-24T11:13:12;24.40;99.90
6964;DHT22;3522;50.856;7.278;2023-07-24T11:15:39;24.10;99.90
6964;DHT22;3522;50.856;7.278;2023-07-24T11:18:06;24.00;99.90
6964;DHT22;3522;50.856;7.278;2023-07-24T11:20:33;24.40;99.90
6964;DHT22;3522;50.856;7.278;2023-07-24T11:23:02;24.90;99.90
6964;DHT22;3522;50.856;7.278;2023-07-24T11:25:29;25.10;99.90
6964;DHT22;3522;50.856;7.278;2023-07-24T11:27:57;25.20;99.90
6964;DHT22;3522;50.856;7.278;2023-07-24T11:30:24;25.40;99.90
6964;DHT22;3522;50.856;7.278;2023-07-24T11:32:51;25.30;99.90
6964;DHT22;3522;50.856;7.278;2023-07-24T11:35:18;25.20;99.90
6964;DHT22;3522;50.856;7.278;2023-07-24T11:37:46;25.00;99.90
6964;DHT22;3522;50.856;7.278;2023-07-24T11:40:13;24.60;99.90
6964;DHT22;3522;50.856;7.278;2023-07-24T11:42:41;24.60;99.90
6964;DHT22;3522;50.856;7.278;2023-07-24T11:45:10;24.40;99.90
6964;DHT22;3522;50.856;7.278;2023-07-24T11:47:43;24.40;99.90
6964;DHT22;3522;50.856;7.278;2023-07-24T11:50:10;24.50;99.90
6964;DHT22;3522;50.856;7.278;2023-07-24T11:52:37;24.70;99.90
6964;DHT22;3522;50.856;7.278;2023-07-24T11:55:04;24.70;99.90
6964;DHT22;3522;50.856;7.278;2023-07-24T11:57:31;24.40;99.90
6964;DHT22;3522;50.856;7.278;2023-07-24T11:59:58;24.20;99.90
6964;DHT22;3522;50.856;7.278;2023-07-24T12:02:28;24.00;99.90
6964;DHT22;3522;50.856;7.278;2023-07-24T12:04:56;23.80;99.90
6964;DHT22;3522;50.856;7.278;2023-07-24T12:07:28;23.60;99.90
6964;DHT22;3522;50.856;7.278;2023-07-24T12:09:55;23.60;99.90
6964;DHT22;3522;50.856;7.278;2023-07-24T12:12:21;23.60;99.90
6964;DHT22;3522;50.856;7.278;2023-07-24T12:14:48;23.70;99.90
6964;DHT22;3522;50.856;7.278;2023-07-24T12:17:17;23.60;99.90
6964;DHT22;3522;50.856;7.278;2023-07-24T12:19:46;23.60;99.90
6964;DHT22;3522;50.856;7.278;2023-07-24T12:22:13;23.50;99.90
6964;DHT22;3522;50.856;7.278;2023-07-24T12:24:40;23.40;99.90
6964;DHT22;3522;50.856;7.278;2023-07-24T12:27:06;23.20;99.90
6964;DHT22;3522;50.856;7.278;2023-07-24T12:29:33;23.10;99.90
6964;DHT22;3522;50.856;7.278;2023-07-24T12:31:59;23.10;99.90
6964;DHT22;3522;50.856;7.278;2023-07-24T12:34:26;22.60;99.90
6964;DHT22;3522;50.856;7.278;2023-07-24T12:36:54;22.00;99.90
6964;DHT22;3522;50.856;7.278;2023-07-24T12:39:21;21.50;99.90
6964;DHT22;3522;50.856;7.278;2023-07-24T12:41:47;21.20;99.90
6964;DHT22;3522;50.856;7.278;2023-07-24T12:44:14;21.00;99.90
6964;DHT22;3522;50.856;7.278;2023-07-24T12:46:40;20.60;99.90
6964;DHT22;3522;50.856;7.278;2023-07-24T12:49:07;20.30;99.90
6964;DHT22;3522;50.856;7.278;2023-07-24T12:51:34;20.10;99.90
6964;DHT22;3522;50.856;7.278;2023-07-24T12:54:01;20.10;99.90
6964;DHT22;3522;50.856;7.278;2023-07-24T12:56:28;20.20;99.90
6964;DHT22;3522;50.856;7.278;2023-07-24T12:58:55;20.30;99.90
6964;DHT22;3522;50.856;7.278;2023-07-24T13:01:21;20.20;99.90
6964;DHT22;3522;50.856;7.278;2023-07-24T13:03:49;20.00;99.90
6964;DHT22;3522;50.856;7.278;2023-07-24T13:06:15;19.90;99.90
6964;DHT22;3522;50.856;7.278;2023-07-24T13:08:42;19.70;99.90
6964;DHT22;3522;50.856;7.278;2023-07-24T13:11:10;19.70;99.90
6964;DHT22;3522;50.856;7.278;2023-07-24T13:13:37;20.10;99.90
6964;DHT22;3522;50.856;7.278;2023-07-24T13:16:03;20.70;99.90
6964;DHT22;3522;50.856;7.278;2023-07-24T13:18:30;21.00;99.90
6964;DHT22;3522;50.856;7.278;2023-07-24T13:20:56;21.20;99.90
6964;DHT22;3522;50.856;7.278;2023-07-24T13:23:23;21.10;99.90
6964;DHT22;3522;50.856;7.278;2023-07-24T13:25:51;21.10;99.90
6964;DHT22;3522;50.856;7.278;2023-07-24T13:28:19;21.20;99.90
6964;DHT22;3522;50.856;7.278;2023-07-24T13:30:46;21.40;99.90
6964;DHT22;3522;50.856;7.278;2023-07-24T13:33:12;21.70;99.90
6964;DHT22;3522;50.856;7.278;2023-07-24T13:35:39;22.00;99.90
6964;DHT22;3522;50.856;7.278;2023-07-24T13:38:05;22.20;99.90
6964;DHT22;3522;50.856;7.278;2023-07-24T13:40:33;22.50;99.90
6964;DHT22;3522;50.856;7.278;2023-07-24T13:43:00;22.70;99.90
6964;DHT22;3522;50.856;7.278;2023-07-24T13:45:28;22.80;99.90
6964;DHT22;3522;50.856;7.278;2023-07-24T13:47:57;22.80;99.90
6964;DHT22;3522;50.856;7.278;2023-07-24T13:50:24;22.90;99.90
6964;DHT22;3522;50.856;7.278;2023-07-24T13:52:50;22.90;99.90
6964;DHT22;3522;50.856;7.278;2023-07-24T13:55:17;22.90;99.90
6964;DHT22;3522;50.856;7.278;2023-07-24T13:57:44;23.10;99.90
6964;DHT22;3522;50.856;7.278;2023-07-24T14:00:10;22.90;99.90
6964;DHT22;3522;50.856;7.278;2023-07-24T14:02:38;22.60;99.90
6964;DHT22;3522;50.856;7.278;2023-07-24T14:05:06;22.30;99.90
6964;DHT22;3522;50.856;7.278;2023-07-24T14:07:32;21.90;99.90
6964;DHT22;3522;50.856;7.278;2023-07-24T14:09:59;21.40;99.90
6964;DHT22;3522;50.856;7.278;2023-07-24T14:12:26;21.40;99.90
6964;DHT22;3522;50.856;7.278;2023-07-24T14:14:52;21.30;99.90
6964;DHT22;3522;50.856;7.278;2023-07-24T14:17:19;21.30;99.90
6964;DHT22;3522;50.856;7.278;2023-07-24T14:19:47;21.20;99.90
6964;DHT22;3522;50.856;7.278;2023-07-24T14:22:13;21.10;99.90
6964;DHT22;3522;50.856;7.278;2023-07-24T14:24:40;21.00;99.90
6964;DHT22;3522;50.856;7.278;2023-07-24T14:27:06;20.90;99.90
6964;DHT22;3522;50.856;7.278;2023-07-24T14:29:33;20.80;99.90
6964;DHT22;3522;50.856;7.278;2023-07-24T14:31:59;20.70;99.90
6964;DHT22;3522;50.856;7.278;2023-07-24T14:34:26;20.30;99.90
6964;DHT22;3522;50.856;7.278;2023-07-24T14:36:54;19.90;99.90
6964;DHT22;3522;50.856;7.278;2023-07-24T14:39:20;19.60;99.90
6964;DHT22;3522;50.856;7.278;2023-07-24T14:41:47;19.20;99.90
6964;DHT22;3522;50.856;7.278;2023-07-24T14:44:13;19.10;99.90
6964;DHT22;3522;50.856;7.278;2023-07-24T14:46:40;19.00;99.90
6964;DHT22;3522;50.856;7.278;2023-07-24T14:49:07;19.00;99.90
6964;DHT22;3522;50.856;7.278;2023-07-24T14:51:33;19.10;99.90
6964;DHT22;3522;50.856;7.278;2023-07-24T14:54:01;19.30;99.90
6964;DHT22;3522;50.856;7.278;2023-07-24T14:56:28;19.50;99.90
6964;DHT22;3522;50.856;7.278;2023-07-24T14:58:54;19.90;99.90
6964;DHT22;3522;50.856;7.278;2023-07-24T15:01:21;20.40;99.90
6964;DHT22;3522;50.856;7.278;2023-07-24T15:03:47;20.90;99.90
6964;DHT22;3522;50.856;7.278;2023-07-24T15:06:14;21.50;99.90
6964;DHT22;3522;50.856;7.278;2023-07-24T15:08:40;21.60;99.90
6964;DHT22;3522;50.856;7.278;2023-07-24T15:11:08;22.00;99.90
6964;DHT22;3522;50.856;7.278;2023-07-24T15:13:35;22.30;99.90
6964;DHT22;3522;50.856;7.278;2023-07-24T15:16:01;22.50;99.90
6964;DHT22;3522;50.856;7.278;2023-07-24T15:18:28;22.90;99.90
6964;DHT22;3522;50.856;7.278;2023-07-24T15:20:54;22.90;99.90
6964;DHT22;3522;50.856;7.278;2023-07-24T15:23:21;22.90;99.90
6964;DHT22;3522;50.856;7.278;2023-07-24T15:25:47;22.60;99.90
6964;DHT22;3522;50.856;7.278;2023-07-24T15:28:15;22.40;99.90
6964;DHT22;3522;50.856;7.278;2023-07-24T15:30:42;22.10;99.90
6964;DHT22;3522;50.856;7.278;2023-07-24T15:33:09;22.00;99.90
6964;DHT22;3522;50.856;7.278;2023-07-24T15:35:35;21.90;99.90
6964;DHT22;3522;50.856;7.278;2023-07-24T15:38:02;21.70;99.90
6964;DHT22;3522;50.856;7.278;2023-07-24T15:40:29;21.40;99.90
6964;DHT22;3522;50.856;7.278;2023-07-24T15:42:56;21.40;99.90
6964;DHT22;3522;50.856;7.278;2023-07-24T15:45:24;21.50;99.90
6964;DHT22;3522;50.856;7.278;2023-07-24T15:47:51;21.80;99.90
6964;DHT22;3522;50.856;7.278;2023-07-24T15:50:17;22.00;99.90
6964;DHT22;3522;50.856;7.278;2023-07-24T15:52:44;22.00;99.90
6964;DHT22;3522;50.856;7.278;2023-07-24T15:55:10;22.00;99.90
6964;DHT22;3522;50.856;7.278;2023-07-24T15:57:37;22.00;99.90
6964;DHT22;3522;50.856;7.278;2023-07-24T16:00:04;21.90;99.90